11:58 GMT
Airports
History
Links
Donate BTC
Help us keep this website running!
Information on this page is community maintained and may be outdated or inaccurate and is intended for simulator navigating and reference only!
Always use approved charts for navigating.
EGJJ
Jersey
Jersey (EGJJ)
Saint Peter, St Peter,
(C)
Lat/Lng:49° 12' 28.67" N / 2° 11' 43.06" W
49.207964 / -2.195294
Elevation:277' ft. / 84 m MSL
ID / ICAO:EGJJ
Runways:1
Longest:[09 27] 1705.9 m, Asphalt
Controlled:Yes
Distance To
Airport ID:
Airport Radio Frequencies
Jersey Information: 129.72
Ground: 121.9
Tower: 119.45
Approach: 120.3
Nearby VORs <50NM
Nearby NDBs
METARUpdated 07-29-16 11:50 GMT

Altimeter: 29.97
Visibility: 6.2 statute miles
Wind: 13 knots (250°)
Temp: 18°c 64°f
Humidity: 82.6%

METAR: EGJJ 291150Z 25013KT 9999 FEW007 SCT030 18/15 Q1015 TEMPO BKN010

(Powered by phpweather)
Runway 09 / 27
Dimensions:1705.9 x 46 m / 5597' x 151' ft
Surface:Asphalt
Edge Lights:High intensity
Runway 09 [A]Runway 27 [B]
Heading:082° True 262° True
Lat:
Lng:
49° 12' 25.18"N
2° 12' 24.95"W
49° 12' 32.16"N
2° 11' 1.17"W
APP Lights:CalvertCalvert ILS Cat II
TouchD. point:Yes, lighted
Google Map
Nearby Airports
4 Portbail 23.4 NM
5022 ENE 67°
(C) Guernsey 24.1 NM
EGJB (WX) NW 310°
(C) Lessay 31.2 NM
LFOM E 90°
4 Vauville 33.1 NM
LFAU NNE 29°
(C) Alderney 34.5 NM
EGJA N 358°
(C) Granville 36.4 NM
LFRF SE 128°
(C) Base ULM 42.2 NM
3559 SSE 159°
VFR Chart
Flight Planning at SkyVector.com